createdAt,value
2022-10-06T00:02:07.804Z,100.00
2022-10-06T00:05:10.380Z,100.00
2022-10-06T00:08:14.205Z,100.00
2022-10-06T00:11:17.714Z,100.00
2022-10-06T00:14:20.274Z,100.00
2022-10-06T00:17:22.765Z,100.00
2022-10-06T00:20:26.381Z,99.77
2022-10-06T00:23:30.560Z,99.93
2022-10-06T00:26:33.075Z,100.00
2022-10-06T00:29:35.556Z,99.88
2022-10-06T00:32:38.936Z,99.98
2022-10-06T00:35:41.424Z,99.70
2022-10-06T00:38:45.249Z,99.84
2022-10-06T00:41:47.734Z,100.00
2022-10-06T00:44:50.250Z,98.59
2022-10-06T00:47:54.420Z,99.46
2022-10-06T00:50:58.837Z,100.00
2022-10-06T00:54:03.893Z,99.24
2022-10-06T00:57:07.511Z,99.33
2022-10-06T01:00:11.246Z,99.11
2022-10-06T01:03:18.334Z,99.10
2022-10-06T01:06:20.834Z,100.00
2022-10-06T01:09:25.359Z,100.00
2022-10-06T01:12:30.614Z,100.00
2022-10-06T01:15:34.414Z,100.00
2022-10-06T01:18:40.368Z,100.00
2022-10-06T01:21:47.451Z,100.00
2022-10-06T01:24:52.901Z,100.00
2022-10-06T01:27:56.799Z,100.00
2022-10-06T01:31:01.606Z,100.00
2022-10-06T01:34:04.682Z,100.00
2022-10-06T01:37:07.182Z,100.00
2022-10-06T01:40:11.585Z,100.00
2022-10-06T01:43:14.124Z,100.00
2022-10-06T01:46:16.664Z,100.00
2022-10-06T01:49:19.187Z,100.00
2022-10-06T01:52:22.125Z,100.00
2022-10-06T01:55:26.451Z,100.00
2022-10-06T01:58:29.278Z,100.00
2022-10-06T02:01:32.204Z,100.00
2022-10-06T02:04:34.776Z,100.00
2022-10-06T02:07:37.974Z,100.00
2022-10-06T02:10:41.765Z,100.00
2022-10-06T02:13:44.251Z,100.00
2022-10-06T02:16:46.921Z,100.00
2022-10-06T02:19:49.419Z,100.00
2022-10-06T02:22:51.890Z,100.00
2022-10-06T02:26:00.877Z,100.00
2022-10-06T02:29:03.353Z,100.00
2022-10-06T02:32:06.147Z,100.00
2022-10-06T02:35:10.098Z,100.00
2022-10-06T02:38:12.594Z,100.00
2022-10-06T02:41:16.422Z,99.90
2022-10-06T02:44:18.919Z,100.00
2022-10-06T02:47:22.283Z,100.00
2022-10-06T02:50:24.810Z,100.00
2022-10-06T02:53:28.170Z,100.00
2022-10-06T02:56:32.156Z,100.00
2022-10-06T02:59:35.101Z,100.00
2022-10-06T03:02:37.711Z,100.00
2022-10-06T03:05:40.375Z,100.00
2022-10-06T03:08:42.838Z,100.00
2022-10-06T03:11:46.679Z,100.00
2022-10-06T03:14:49.148Z,99.76
2022-10-06T03:17:52.438Z,99.04
2022-10-06T03:20:54.941Z,99.81
2022-10-06T03:23:58.473Z,99.73
2022-10-06T03:27:03.330Z,99.81
2022-10-06T03:30:06.777Z,100.00
2022-10-06T03:33:09.263Z,100.00
2022-10-06T03:36:13.532Z,99.67
2022-10-06T03:39:16.103Z,100.00
2022-10-06T03:42:19.932Z,100.00
2022-10-06T03:45:22.439Z,100.00
2022-10-06T03:48:25.064Z,100.00
2022-10-06T03:51:29.581Z,99.63
2022-10-06T03:54:32.057Z,98.77
2022-10-06T03:57:35.848Z,98.23
2022-10-06T04:00:38.498Z,98.53
2022-10-06T04:03:41.253Z,97.94
2022-10-06T04:06:44.789Z,97.84
2022-10-06T04:09:47.277Z,97.86
2022-10-06T04:12:51.081Z,97.21
2022-10-06T04:15:53.551Z,96.92
2022-10-06T04:18:57.798Z,98.40
2022-10-06T04:22:00.294Z,96.99
2022-10-06T04:25:02.754Z,97.92
2022-10-06T04:28:06.592Z,97.83
2022-10-06T04:31:15.965Z,100.00
2022-10-06T04:34:18.486Z,99.88
2022-10-06T04:37:20.978Z,100.00
2022-10-06T04:40:23.496Z,99.26
2022-10-06T04:43:27.860Z,100.00
2022-10-06T04:46:47.161Z,100.00
2022-10-06T04:49:49.707Z,100.00
2022-10-06T04:52:54.219Z,100.00
2022-10-06T04:56:01.572Z,100.00
2022-10-06T04:59:05.403Z,100.00
2022-10-06T05:02:07.936Z,100.00
2022-10-06T05:05:10.500Z,99.62
2022-10-06T05:08:13.010Z,100.00
2022-10-06T05:11:18.119Z,100.00
2022-10-06T05:14:23.813Z,100.00
2022-10-06T05:17:26.321Z,100.00
2022-10-06T05:20:28.841Z,100.00
2022-10-06T05:23:32.801Z,100.00
2022-10-06T05:26:36.889Z,100.00
2022-10-06T05:29:40.733Z,99.43
2022-10-06T05:32:46.240Z,99.08
2022-10-06T05:35:52.375Z,98.23
2022-10-06T05:38:54.972Z,98.61
2022-10-06T05:41:57.449Z,98.25
2022-10-06T05:45:01.266Z,98.28
2022-10-06T05:48:04.385Z,99.11
2022-10-06T05:51:08.475Z,97.46
2022-10-06T05:54:10.957Z,98.03
2022-10-06T05:57:13.878Z,97.03
2022-10-06T06:00:17.934Z,96.75
2022-10-06T06:03:20.407Z,96.80
2022-10-06T06:06:24.921Z,97.36
2022-10-06T06:09:28.761Z,96.34
2022-10-06T06:12:31.243Z,97.46
2022-10-06T06:15:52.975Z,97.14
2022-10-06T06:18:55.931Z,97.06
2022-10-06T06:21:58.453Z,97.32
2022-10-06T06:25:00.910Z,96.59
2022-10-06T06:28:03.461Z,96.88
2022-10-06T06:31:09.712Z,97.42
2022-10-06T06:34:12.370Z,96.04
2022-10-06T06:37:15.567Z,95.85
2022-10-06T06:40:18.109Z,95.74
2022-10-06T06:43:20.580Z,95.14
2022-10-06T06:46:26.915Z,94.44
2022-10-06T06:49:29.660Z,94.03
2022-10-06T06:52:32.451Z,94.62
2022-10-06T06:55:34.986Z,93.73
2022-10-06T06:58:38.132Z,94.23
2022-10-06T07:01:45.362Z,93.58
2022-10-06T07:04:47.930Z,93.10
2022-10-06T07:07:51.326Z,92.26
2022-10-06T07:10:55.246Z,92.32
2022-10-06T07:14:01.069Z,91.75
2022-10-06T07:17:22.398Z,90.65
2022-10-06T07:20:42.750Z,91.87
2022-10-06T07:24:04.270Z,91.61
2022-10-06T07:27:06.787Z,90.26
2022-10-06T07:30:11.196Z,90.36
2022-10-06T07:33:15.685Z,90.90
2022-10-06T07:36:18.752Z,90.82
2022-10-06T07:39:21.617Z,89.89
2022-10-06T07:42:24.116Z,91.16
2022-10-06T07:45:41.327Z,89.13
2022-10-06T07:48:47.109Z,88.76
2022-10-06T07:51:49.602Z,87.37
2022-10-06T07:54:52.403Z,87.71
2022-10-06T07:57:55.067Z,87.33
2022-10-06T08:01:05.098Z,87.33
2022-10-06T08:04:08.927Z,87.35
2022-10-06T08:07:12.545Z,87.40
2022-10-06T08:10:18.379Z,86.36
2022-10-06T08:13:20.984Z,85.41
2022-10-06T08:16:25.767Z,85.96
2022-10-06T08:19:29.658Z,85.42
2022-10-06T08:22:32.491Z,84.66
2022-10-06T08:25:36.200Z,84.94
2022-10-06T08:28:39.346Z,83.52
2022-10-06T08:31:41.947Z,83.80
2022-10-06T08:34:47.247Z,82.71
2022-10-06T08:37:50.174Z,81.90
2022-10-06T08:40:52.689Z,81.31
2022-10-06T08:44:00.833Z,80.83
2022-10-06T08:47:05.550Z,80.53
2022-10-06T08:50:13.340Z,80.36
2022-10-06T08:53:26.146Z,77.86
2022-10-06T08:56:34.322Z,78.49
2022-10-06T08:59:37.745Z,77.00
2022-10-06T09:02:45.432Z,78.23
2022-10-06T09:05:49.526Z,77.05
2022-10-06T09:08:56.899Z,77.15
2022-10-06T09:12:07.657Z,75.28
2022-10-06T09:15:24.444Z,76.46
2022-10-06T09:18:56.080Z,74.37
2022-10-06T09:21:56.554Z,72.90
2022-10-06T09:25:04.032Z,74.07
2022-10-06T09:28:15.497Z,72.75
2022-10-06T09:31:23.600Z,71.61
2022-10-06T09:34:34.803Z,69.24
2022-10-06T09:37:54.490Z,70.41
2022-10-06T09:40:57.459Z,70.48
2022-10-06T09:44:03.813Z,68.71
2022-10-06T09:47:24.268Z,67.81
2022-10-06T09:50:28.452Z,67.16
2022-10-06T09:53:35.541Z,65.95
2022-10-06T09:56:42.037Z,65.10
2022-10-06T09:59:46.518Z,65.38
2022-10-06T10:02:49.181Z,65.16
2022-10-06T10:05:54.782Z,65.64
2022-10-06T10:09:30.340Z,61.90
2022-10-06T10:12:34.837Z,59.60
2022-10-06T10:15:42.526Z,57.89
2022-10-06T10:18:47.809Z,57.75
2022-10-06T10:21:50.320Z,56.65
2022-10-06T10:25:05.335Z,58.23
2022-10-06T10:28:17.468Z,60.58
2022-10-06T10:31:29.665Z,60.89
2022-10-06T10:35:06.983Z,57.67
2022-10-06T10:38:18.086Z,58.09
2022-10-06T10:41:25.446Z,56.18
2022-10-06T10:44:33.290Z,57.48
2022-10-06T10:47:38.792Z,55.76
2022-10-06T10:50:51.011Z,54.94
2022-10-06T10:53:58.347Z,54.24
2022-10-06T10:57:02.449Z,50.12
2022-10-06T11:00:08.801Z,53.16
2022-10-06T11:03:11.663Z,51.34
2022-10-06T11:06:43.710Z,52.54
2022-10-06T11:09:50.971Z,48.18
2022-10-06T11:13:14.825Z,48.16
2022-10-06T11:16:27.447Z,47.90
2022-10-06T11:19:41.259Z,47.84
2022-10-06T11:22:47.963Z,48.71
2022-10-06T11:25:56.317Z,47.21
2022-10-06T11:29:08.513Z,44.21
2022-10-06T11:32:23.719Z,44.15
2022-10-06T11:35:28.613Z,45.16
2022-10-06T11:38:40.217Z,47.63
2022-10-06T11:41:46.378Z,47.44
2022-10-06T11:44:57.003Z,49.11
2022-10-06T11:48:26.579Z,45.35
2022-10-06T11:51:31.222Z,43.70
2022-10-06T11:54:46.346Z,43.75
2022-10-06T11:58:37.522Z,44.92
2022-10-06T12:01:55.981Z,46.14
2022-10-06T12:05:55.688Z,47.94
2022-10-06T12:08:54.178Z,48.55
2022-10-06T12:11:58.058Z,47.64
2022-10-06T12:18:41.692Z,47.07
2022-10-06T12:21:51.221Z,46.39
2022-10-06T12:25:02.721Z,48.00
2022-10-06T12:28:15.970Z,48.51
2022-10-06T12:31:44.914Z,48.06
2022-10-06T12:35:03.732Z,44.53
2022-10-06T12:38:07.509Z,44.68
2022-10-06T12:41:11.778Z,41.89
2022-10-06T12:44:24.162Z,41.11
2022-10-06T12:47:35.456Z,39.63
2022-10-06T12:50:42.810Z,37.36
2022-10-06T12:53:55.447Z,39.60
2022-10-06T12:56:59.377Z,38.14
2022-10-06T13:00:01.916Z,37.14
2022-10-06T13:03:07.109Z,36.97
2022-10-06T13:06:11.809Z,37.90
2022-10-06T13:09:15.392Z,35.26
2022-10-06T13:12:27.342Z,35.68
2022-10-06T13:18:39.182Z,33.47
2022-10-06T13:21:43.012Z,34.55
2022-10-06T13:24:45.492Z,35.15
2022-10-06T13:27:50.939Z,35.81
2022-10-06T13:30:56.142Z,35.44
2022-10-06T13:34:01.660Z,37.08
2022-10-06T13:37:05.628Z,38.52
2022-10-06T13:40:21.784Z,39.34
2022-10-06T13:43:43.054Z,39.79
2022-10-06T13:46:49.349Z,40.26
2022-10-06T13:49:56.210Z,41.58
2022-10-06T13:53:01.744Z,42.11
2022-10-06T13:56:04.224Z,43.42
2022-10-06T13:59:38.214Z,44.80
2022-10-06T14:02:42.081Z,47.02
2022-10-06T14:05:47.286Z,45.56
2022-10-06T14:08:54.887Z,46.25
2022-10-06T14:12:04.762Z,47.13
2022-10-06T14:15:18.043Z,48.23
2022-10-06T14:18:24.676Z,47.79
2022-10-06T14:21:35.466Z,49.64
2022-10-06T14:24:51.293Z,49.26
2022-10-06T14:27:54.653Z,50.00
2022-10-06T14:30:57.607Z,51.09
2022-10-06T14:34:00.686Z,54.35
2022-10-06T14:37:03.229Z,55.46
2022-10-06T14:40:11.971Z,53.09
2022-10-06T14:43:14.814Z,51.35
2022-10-06T14:46:17.345Z,53.28
2022-10-06T14:49:20.333Z,48.45
2022-10-06T14:52:22.816Z,50.41
2022-10-06T14:55:30.281Z,49.97
2022-10-06T14:58:32.974Z,50.12
2022-10-06T15:01:37.472Z,50.77
2022-10-06T15:04:39.941Z,50.60
2022-10-06T15:08:00.508Z,51.28
2022-10-06T15:11:04.341Z,50.03
2022-10-06T15:14:08.553Z,51.52
2022-10-06T15:17:11.109Z,54.18
2022-10-06T15:20:14.209Z,51.26
2022-10-06T15:23:17.285Z,52.13
2022-10-06T15:26:40.845Z,52.14
2022-10-06T15:29:43.340Z,51.98
2022-10-06T15:32:46.324Z,52.45
2022-10-06T15:36:05.814Z,53.15
2022-10-06T15:39:10.448Z,53.96
2022-10-06T15:42:15.401Z,52.41
2022-10-06T15:45:18.227Z,53.39
2022-10-06T15:48:21.874Z,52.50
2022-10-06T15:51:24.469Z,53.92
2022-10-06T15:54:28.755Z,54.23
2022-10-06T15:57:32.607Z,55.53
2022-10-06T16:00:35.083Z,58.71
2022-10-06T16:03:41.359Z,60.06
2022-10-06T16:06:50.190Z,58.78
2022-10-06T16:09:52.877Z,60.77
2022-10-06T16:12:56.690Z,60.56
2022-10-06T16:15:59.224Z,61.98
2022-10-06T16:19:02.507Z,63.59
2022-10-06T16:22:06.639Z,63.33
2022-10-06T16:25:09.576Z,64.04
2022-10-06T16:28:14.611Z,65.73
2022-10-06T16:31:17.377Z,64.02
2022-10-06T16:34:20.040Z,66.03
2022-10-06T16:37:22.526Z,66.24
2022-10-06T16:40:25.005Z,66.70
2022-10-06T16:43:33.693Z,66.72
2022-10-06T16:46:36.612Z,67.70
2022-10-06T16:49:39.138Z,67.58
2022-10-06T16:52:41.864Z,68.40
2022-10-06T16:55:44.400Z,68.10
2022-10-06T16:58:50.207Z,68.23
2022-10-06T17:01:52.696Z,68.51
2022-10-06T17:04:55.169Z,69.31
2022-10-06T17:07:59.223Z,68.97
2022-10-06T17:11:03.743Z,70.63
2022-10-06T17:14:07.680Z,70.05
2022-10-06T17:17:10.173Z,70.24
2022-10-06T17:20:13.850Z,71.29
2022-10-06T17:23:16.324Z,71.47
2022-10-06T17:26:20.247Z,70.44
2022-10-06T17:29:24.681Z,72.02
2022-10-06T17:32:27.178Z,72.14
2022-10-06T17:35:29.663Z,72.45
2022-10-06T17:38:32.412Z,71.63
2022-10-06T17:41:36.759Z,72.43
2022-10-06T17:44:41.149Z,71.58
2022-10-06T17:47:43.617Z,71.88
2022-10-06T17:50:57.672Z,73.08
2022-10-06T17:54:01.686Z,72.38
2022-10-06T17:57:05.310Z,71.74
2022-10-06T18:00:10.615Z,73.55
2022-10-06T18:03:13.279Z,72.61
2022-10-06T18:06:17.418Z,73.91
2022-10-06T18:09:20.480Z,72.08
2022-10-06T18:12:22.013Z,74.69
2022-10-06T18:15:27.003Z,74.44
2022-10-06T18:18:30.299Z,73.22
2022-10-06T18:21:35.202Z,74.66
2022-10-06T18:24:38.110Z,75.28
2022-10-06T18:27:40.969Z,74.68
2022-10-06T18:30:50.406Z,74.76
2022-10-06T18:37:15.860Z,76.64
2022-10-06T18:40:18.534Z,75.56
2022-10-06T18:43:20.997Z,75.95
2022-10-06T18:46:42.765Z,75.95
2022-10-06T18:49:45.234Z,76.82
2022-10-06T18:52:47.723Z,76.30
2022-10-06T18:55:52.258Z,78.17
2022-10-06T18:58:54.746Z,76.79
2022-10-06T19:02:00.200Z,78.06
2022-10-06T19:05:03.074Z,78.00
2022-10-06T19:08:05.886Z,78.26
2022-10-06T19:11:26.338Z,78.12
2022-10-06T19:14:31.574Z,78.81
2022-10-06T19:17:35.719Z,78.11
2022-10-06T19:20:38.208Z,77.92
2022-10-06T19:23:41.387Z,77.93
2022-10-06T19:26:46.274Z,79.03
2022-10-06T19:29:52.812Z,79.40
2022-10-06T19:32:56.667Z,78.46
2022-10-06T19:36:00.373Z,80.03
2022-10-06T19:39:04.077Z,79.07
2022-10-06T19:42:24.649Z,80.28
2022-10-06T19:45:27.150Z,80.13
2022-10-06T19:48:31.634Z,79.76
2022-10-06T19:51:35.440Z,78.90
2022-10-06T19:54:38.544Z,79.69
2022-10-06T19:57:41.290Z,79.78
2022-10-06T20:00:44.137Z,79.95
2022-10-06T20:03:48.242Z,80.64
2022-10-06T20:06:51.961Z,79.93
2022-10-06T20:09:54.542Z,80.97
2022-10-06T20:12:58.562Z,81.38
2022-10-06T20:16:04.974Z,81.00
2022-10-06T20:19:10.705Z,82.10
2022-10-06T20:22:13.203Z,83.00
2022-10-06T20:25:15.717Z,81.09
2022-10-06T20:28:18.297Z,82.69
2022-10-06T20:31:22.992Z,82.89
2022-10-06T20:34:31.466Z,82.91
2022-10-06T20:37:33.953Z,83.34
2022-10-06T20:40:43.230Z,84.30
2022-10-06T20:43:45.761Z,84.67
2022-10-06T20:46:48.275Z,84.87
2022-10-06T20:49:54.991Z,84.92
2022-10-06T20:52:58.315Z,85.62
2022-10-06T20:56:01.492Z,84.30
2022-10-06T20:59:06.997Z,83.30
2022-10-06T21:02:11.307Z,83.89
2022-10-06T21:05:15.191Z,85.11
2022-10-06T21:08:17.756Z,84.50
2022-10-06T21:11:22.838Z,84.60
2022-10-06T21:14:26.061Z,84.46
2022-10-06T21:17:28.652Z,84.52
2022-10-06T21:20:32.494Z,84.74
2022-10-06T21:23:38.018Z,84.92
2022-10-06T21:26:42.420Z,84.64
2022-10-06T21:29:45.053Z,83.25
2022-10-06T21:32:47.674Z,86.43
2022-10-06T21:35:59.205Z,85.42
2022-10-06T21:39:04.378Z,85.44
2022-10-06T21:42:07.061Z,87.01
2022-10-06T21:45:10.375Z,85.38
2022-10-06T21:48:13.607Z,85.52
2022-10-06T21:51:17.464Z,85.47
2022-10-06T21:54:21.054Z,86.14
2022-10-06T21:57:23.564Z,86.72
2022-10-06T22:00:26.067Z,86.93
2022-10-06T22:03:28.599Z,86.91
2022-10-06T22:06:34.628Z,85.39
2022-10-06T22:09:37.187Z,86.08
2022-10-06T22:12:39.703Z,85.36
2022-10-06T22:15:42.222Z,86.08
2022-10-06T22:18:44.770Z,84.98
2022-10-06T22:21:49.426Z,85.94
2022-10-06T22:24:51.927Z,85.90
2022-10-06T22:27:54.417Z,86.47
2022-10-06T22:31:08.643Z,86.27
2022-10-06T22:34:14.139Z,85.83
2022-10-06T22:37:18.039Z,85.40
2022-10-06T22:40:20.583Z,86.56
2022-10-06T22:43:23.087Z,88.37
2022-10-06T22:46:26.559Z,86.78
2022-10-06T22:49:29.127Z,87.82
2022-10-06T22:52:32.967Z,86.89
2022-10-06T22:55:35.478Z,87.69
2022-10-06T22:58:38.862Z,87.73
2022-10-06T23:01:41.417Z,88.15
2022-10-06T23:04:43.926Z,88.10
2022-10-06T23:07:47.795Z,87.83
2022-10-06T23:10:50.494Z,87.67
2022-10-06T23:13:53.270Z,88.16
2022-10-06T23:16:55.852Z,89.06
2022-10-06T23:19:58.414Z,88.72
2022-10-06T23:23:02.292Z,87.61
2022-10-06T23:26:07.152Z,88.60
2022-10-06T23:29:12.795Z,87.19
2022-10-06T23:32:15.306Z,88.21
2022-10-06T23:35:17.819Z,89.13
2022-10-06T23:38:21.658Z,88.23
2022-10-06T23:41:24.262Z,87.99
2022-10-06T23:44:27.080Z,88.25
2022-10-06T23:47:29.594Z,87.24
2022-10-06T23:50:32.118Z,87.79
2022-10-06T23:53:36.578Z,86.94
2022-10-06T23:56:39.287Z,88.74
2022-10-06T23:59:41.800Z,88.42
